createdAt,value
2023-03-06T00:02:11.945Z,9.90
2023-03-06T00:04:40.834Z,9.95
2023-03-06T00:07:09.882Z,9.87
2023-03-06T00:09:41.504Z,9.92
2023-03-06T00:12:25.324Z,9.89
2023-03-06T00:14:59.949Z,9.87
2023-03-06T00:17:32.184Z,9.59
2023-03-06T00:20:05.169Z,9.70
2023-03-06T00:22:39.904Z,9.58
2023-03-06T00:25:09.992Z,9.52
2023-03-06T00:27:38.929Z,9.49
2023-03-06T00:30:08.750Z,9.44
2023-03-06T00:32:37.793Z,9.39
2023-03-06T00:35:07.511Z,9.38
2023-03-06T00:37:37.223Z,9.27
2023-03-06T00:40:08.459Z,9.20
2023-03-06T00:42:37.489Z,9.29
2023-03-06T00:45:07.347Z,9.20
2023-03-06T00:47:36.428Z,9.12
2023-03-06T00:50:12.554Z,9.06
2023-03-06T00:52:42.852Z,9.05
2023-03-06T00:55:12.525Z,9.00
2023-03-06T00:57:43.479Z,8.95
2023-03-06T01:00:14.117Z,8.94
2023-03-06T01:02:43.514Z,8.90
2023-03-06T01:05:14.800Z,8.77
2023-03-06T01:07:43.771Z,8.76
2023-03-06T01:10:16.260Z,8.52
2023-03-06T01:12:46.840Z,8.56
2023-03-06T01:15:25.952Z,8.55
2023-03-06T01:18:21.473Z,8.44
2023-03-06T01:20:50.782Z,8.39
2023-03-06T01:23:20.821Z,8.37
2023-03-06T01:25:49.992Z,8.08
2023-03-06T01:28:45.164Z,7.97
2023-03-06T01:31:16.127Z,8.07
2023-03-06T01:33:45.029Z,8.01
2023-03-06T01:36:17.085Z,7.97
2023-03-06T01:38:50.754Z,8.03
2023-03-06T01:41:22.784Z,8.00
2023-03-06T01:43:52.048Z,7.91
2023-03-06T01:46:26.861Z,7.61
2023-03-06T01:49:14.719Z,7.42
2023-03-06T01:52:01.350Z,7.24
2023-03-06T01:54:37.197Z,7.16
2023-03-06T01:57:30.080Z,6.98
2023-03-06T02:00:24.865Z,6.83
2023-03-06T02:03:23.183Z,6.58
2023-03-06T02:05:52.517Z,6.28
2023-03-06T02:08:24.439Z,6.08
2023-03-06T02:11:19.237Z,5.81
2023-03-06T02:13:50.951Z,5.60
2023-03-06T02:16:23.568Z,5.45
2023-03-06T02:18:55.101Z,5.27
2023-03-06T02:21:34.094Z,5.11
2023-03-06T02:24:23.589Z,5.04
2023-03-06T02:26:53.837Z,5.10
2023-03-06T02:29:29.128Z,4.97
2023-03-06T02:32:04.716Z,4.99
2023-03-06T02:34:39.780Z,4.94
2023-03-06T02:37:13.442Z,4.96
2023-03-06T02:39:47.759Z,4.79
2023-03-06T02:42:26.005Z,4.70
2023-03-06T02:45:00.180Z,4.66
2023-03-06T02:47:35.349Z,4.51
2023-03-06T02:50:04.561Z,4.63
2023-03-06T02:52:34.318Z,4.60
2023-03-06T02:55:10.253Z,4.48
2023-03-06T02:57:39.376Z,4.61
2023-03-06T03:00:09.589Z,4.48
2023-03-06T03:02:39.090Z,4.47
2023-03-06T03:05:08.439Z,4.60
2023-03-06T03:07:37.549Z,4.60
2023-03-06T03:10:07.390Z,4.65
2023-03-06T03:12:39.754Z,4.53
2023-03-06T03:15:10.014Z,4.73
2023-03-06T03:17:41.326Z,4.51
2023-03-06T03:20:14.804Z,4.41
2023-03-06T03:22:44.144Z,4.32
2023-03-06T03:25:13.240Z,4.64
2023-03-06T03:27:42.280Z,4.64
2023-03-06T03:30:11.863Z,4.65
2023-03-06T03:32:44.155Z,4.40
2023-03-06T03:35:14.325Z,4.41
2023-03-06T03:37:46.513Z,4.12
2023-03-06T03:40:16.236Z,4.28
2023-03-06T03:42:51.448Z,4.13
2023-03-06T03:45:21.487Z,3.98
2023-03-06T03:47:50.769Z,3.99
2023-03-06T03:50:20.589Z,4.01
2023-03-06T03:52:49.569Z,3.89
2023-03-06T03:55:23.618Z,3.84
2023-03-06T03:57:52.848Z,3.75
2023-03-06T04:00:22.030Z,3.80
2023-03-06T04:03:03.811Z,3.80
2023-03-06T04:05:39.613Z,3.96
2023-03-06T04:08:10.429Z,3.88
2023-03-06T04:10:45.308Z,3.68
2023-03-06T04:13:16.759Z,3.61
2023-03-06T04:15:48.006Z,3.33
2023-03-06T04:18:17.510Z,3.71
2023-03-06T04:20:48.702Z,3.81
2023-03-06T04:23:19.709Z,3.74
2023-03-06T04:25:50.857Z,3.48
2023-03-06T04:28:24.274Z,3.50
2023-03-06T04:30:56.604Z,3.24
2023-03-06T04:33:26.219Z,3.45
2023-03-06T04:35:56.149Z,3.39
2023-03-06T04:38:29.289Z,3.87
2023-03-06T04:40:59.812Z,3.31
2023-03-06T04:43:30.207Z,3.53
2023-03-06T04:45:59.450Z,3.19
2023-03-06T04:48:28.454Z,2.93
2023-03-06T04:50:57.405Z,3.09
2023-03-06T04:53:29.569Z,3.00
2023-03-06T04:55:58.561Z,2.88
2023-03-06T04:58:27.935Z,2.64
2023-03-06T05:00:57.006Z,2.75
2023-03-06T05:03:26.042Z,2.88
2023-03-06T05:05:55.184Z,3.11
2023-03-06T05:08:24.727Z,3.16
2023-03-06T05:11:01.564Z,3.09
2023-03-06T05:13:31.218Z,2.88
2023-03-06T05:16:07.508Z,3.10
2023-03-06T05:18:37.208Z,2.87
2023-03-06T05:21:07.125Z,2.68
2023-03-06T05:23:39.395Z,2.73
2023-03-06T05:26:13.619Z,3.06
2023-03-06T05:29:07.914Z,3.20
2023-03-06T05:31:36.978Z,3.26
2023-03-06T05:34:05.923Z,3.20
2023-03-06T05:36:37.506Z,3.50
2023-03-06T05:39:09.654Z,3.51
2023-03-06T05:41:38.745Z,3.16
2023-03-06T05:44:07.772Z,3.55
2023-03-06T05:46:36.979Z,3.49
2023-03-06T05:49:05.889Z,3.48
2023-03-06T05:51:36.419Z,3.56
2023-03-06T05:54:05.496Z,3.62
2023-03-06T05:56:34.650Z,3.60
2023-03-06T05:59:03.711Z,3.47
2023-03-06T06:01:32.847Z,3.56
2023-03-06T06:04:01.854Z,3.52
2023-03-06T06:06:30.920Z,3.57
2023-03-06T06:09:02.642Z,3.55
2023-03-06T06:11:33.413Z,3.52
2023-03-06T06:14:05.645Z,3.50
2023-03-06T06:16:37.884Z,3.12
2023-03-06T06:19:07.034Z,3.14
2023-03-06T06:21:38.073Z,3.09
2023-03-06T06:25:05.076Z,3.29
2023-03-06T06:28:16.336Z,3.52
2023-03-06T06:31:17.339Z,3.50
2023-03-06T06:33:46.398Z,3.60
2023-03-06T06:36:22.229Z,3.53
2023-03-06T06:38:54.756Z,3.11
2023-03-06T06:41:42.672Z,3.22
2023-03-06T06:44:19.001Z,3.64
2023-03-06T06:49:51.979Z,3.57
2023-03-06T06:52:23.279Z,3.31
2023-03-06T06:54:58.942Z,3.16
2023-03-06T06:57:35.888Z,3.04
2023-03-06T07:00:08.081Z,2.97
2023-03-06T07:02:50.150Z,3.09
2023-03-06T07:05:22.577Z,3.19
2023-03-06T07:07:55.934Z,3.08
2023-03-06T07:10:25.081Z,3.26
2023-03-06T07:12:57.411Z,3.25
2023-03-06T07:15:31.982Z,2.96
2023-03-06T07:18:04.191Z,2.72
2023-03-06T07:20:37.244Z,3.10
2023-03-06T07:23:09.637Z,3.11
2023-03-06T07:25:43.279Z,2.97
2023-03-06T07:28:18.492Z,3.05
2023-03-06T07:30:56.906Z,2.79
2023-03-06T07:33:29.402Z,2.36
2023-03-06T07:35:58.505Z,2.26
2023-03-06T07:38:32.532Z,2.18
2023-03-06T07:41:01.588Z,2.37
2023-03-06T07:43:30.889Z,2.25
2023-03-06T07:46:06.607Z,2.07
2023-03-06T07:48:36.090Z,2.33
2023-03-06T07:51:08.640Z,2.03
2023-03-06T07:53:37.626Z,2.09
2023-03-06T07:56:14.842Z,2.25
2023-03-06T07:58:45.921Z,2.38
2023-03-06T08:01:20.692Z,2.35
2023-03-06T08:03:50.802Z,2.29
2023-03-06T08:06:29.485Z,2.24
2023-03-06T08:08:58.844Z,2.53
2023-03-06T08:11:34.656Z,2.38
2023-03-06T08:14:05.984Z,2.41
2023-03-06T08:16:35.112Z,2.21
2023-03-06T08:19:04.068Z,2.44
2023-03-06T08:21:33.154Z,2.25
2023-03-06T08:24:02.130Z,2.54
2023-03-06T08:26:33.363Z,2.55
2023-03-06T08:29:03.874Z,2.49
2023-03-06T08:31:41.618Z,2.21
2023-03-06T08:34:13.401Z,2.40
2023-03-06T08:36:42.632Z,2.47
2023-03-06T08:39:12.054Z,2.43
2023-03-06T08:41:43.038Z,2.49
2023-03-06T08:44:12.939Z,2.44
2023-03-06T08:46:45.064Z,2.33
2023-03-06T08:49:14.825Z,2.04
2023-03-06T08:51:43.860Z,1.95
2023-03-06T08:54:14.405Z,2.03
2023-03-06T08:56:43.457Z,1.97
2023-03-06T08:59:16.050Z,1.83
2023-03-06T09:01:46.008Z,1.98
2023-03-06T09:04:15.023Z,1.79
2023-03-06T09:06:46.085Z,1.83
2023-03-06T09:09:15.093Z,1.81
2023-03-06T09:11:43.967Z,2.03
2023-03-06T09:14:13.147Z,2.08
2023-03-06T09:16:42.135Z,2.00
2023-03-06T09:19:11.547Z,2.08
2023-03-06T09:21:41.298Z,2.10
2023-03-06T09:24:10.427Z,1.89
2023-03-06T09:26:46.156Z,2.05
2023-03-06T09:29:17.018Z,1.89
2023-03-06T09:31:50.234Z,2.00
2023-03-06T09:34:19.292Z,2.07
2023-03-06T09:36:56.727Z,2.25
2023-03-06T09:39:27.331Z,2.50
2023-03-06T09:41:58.995Z,2.48
2023-03-06T09:44:33.490Z,2.53
2023-03-06T09:47:23.250Z,2.52
2023-03-06T09:50:00.945Z,2.56
2023-03-06T09:52:44.323Z,2.33
2023-03-06T09:55:18.979Z,2.21
2023-03-06T09:58:12.663Z,2.22
2023-03-06T10:00:51.633Z,2.23
2023-03-06T10:03:33.028Z,2.08
2023-03-06T10:06:22.267Z,2.23
2023-03-06T10:09:04.148Z,2.28
2023-03-06T10:11:39.111Z,2.34
2023-03-06T10:14:38.525Z,2.26
2023-03-06T10:17:14.636Z,2.28
2023-03-06T10:19:43.796Z,2.52
2023-03-06T10:22:40.602Z,2.47
2023-03-06T10:25:33.396Z,2.26
2023-03-06T10:28:29.472Z,2.24
2023-03-06T10:31:02.914Z,2.50
2023-03-06T10:33:54.992Z,2.59
2023-03-06T10:36:30.592Z,2.56
2023-03-06T10:39:00.775Z,2.50
2023-03-06T10:41:32.012Z,2.62
2023-03-06T10:44:00.924Z,2.37
2023-03-06T10:46:35.995Z,2.42
2023-03-06T10:49:30.764Z,2.79
2023-03-06T10:52:20.025Z,2.82
2023-03-06T10:54:49.304Z,2.64
2023-03-06T10:57:32.295Z,2.45
2023-03-06T11:00:07.710Z,2.24
2023-03-06T11:02:39.338Z,2.15
2023-03-06T11:05:21.008Z,2.61
2023-03-06T11:07:59.996Z,2.73
2023-03-06T11:10:31.238Z,2.78
2023-03-06T11:13:08.320Z,2.85
2023-03-06T11:15:37.612Z,2.77
2023-03-06T11:18:09.640Z,2.63
2023-03-06T11:20:54.218Z,2.38
2023-03-06T11:23:35.195Z,2.48
2023-03-06T11:26:20.945Z,2.71
2023-03-06T11:28:57.503Z,2.70
2023-03-06T11:31:36.470Z,2.70
2023-03-06T11:34:36.128Z,2.52
2023-03-06T11:37:12.717Z,2.65
2023-03-06T11:40:12.027Z,2.78
2023-03-06T11:43:00.750Z,2.68
2023-03-06T11:45:52.410Z,2.69
2023-03-06T11:48:24.692Z,2.70
2023-03-06T11:51:06.644Z,2.43
2023-03-06T11:53:39.139Z,2.72
2023-03-06T11:56:24.491Z,2.76
2023-03-06T11:59:22.595Z,2.73
2023-03-06T12:02:16.107Z,2.44
2023-03-06T12:04:45.132Z,2.48
2023-03-06T12:07:32.334Z,2.49
2023-03-06T12:10:45.237Z,2.48
2023-03-06T12:13:19.487Z,2.60
2023-03-06T12:16:08.243Z,2.69
2023-03-06T12:18:49.112Z,2.62
2023-03-06T12:21:45.592Z,2.65
2023-03-06T12:24:24.056Z,2.51
2023-03-06T12:27:14.170Z,2.54
2023-03-06T12:29:45.326Z,2.46
2023-03-06T12:32:37.394Z,2.47
2023-03-06T12:35:27.095Z,2.47
2023-03-06T12:38:01.857Z,2.41
2023-03-06T12:40:33.384Z,2.26
2023-03-06T12:43:30.962Z,2.22
2023-03-06T12:46:10.571Z,2.09
2023-03-06T12:48:45.555Z,2.00
2023-03-06T12:51:19.180Z,1.75
2023-03-06T12:53:51.212Z,1.76
2023-03-06T12:56:22.642Z,1.79
2023-03-06T12:58:55.923Z,1.96
2023-03-06T13:01:48.893Z,2.13
2023-03-06T13:04:32.852Z,2.07
2023-03-06T13:07:23.762Z,2.15
2023-03-06T13:10:08.308Z,2.09
2023-03-06T13:12:58.298Z,1.90
2023-03-06T13:15:44.756Z,2.09
2023-03-06T13:18:33.770Z,2.09
2023-03-06T13:21:03.185Z,2.10
2023-03-06T13:23:34.724Z,2.12
2023-03-06T13:26:11.508Z,2.00
2023-03-06T13:28:45.944Z,1.89
2023-03-06T13:31:26.803Z,1.85
2023-03-06T13:33:58.138Z,1.83
2023-03-06T13:36:39.805Z,1.87
2023-03-06T13:39:10.789Z,1.79
2023-03-06T13:41:45.793Z,1.73
2023-03-06T13:44:26.545Z,1.78
2023-03-06T13:47:09.200Z,1.81
2023-03-06T13:49:47.556Z,1.81
2023-03-06T13:52:42.987Z,1.71
2023-03-06T13:55:31.125Z,1.40
2023-03-06T13:58:22.564Z,1.60
2023-03-06T14:01:07.521Z,1.71
2023-03-06T14:04:05.423Z,1.75
2023-03-06T14:06:38.018Z,1.49
2023-03-06T14:09:25.270Z,1.75
2023-03-06T14:11:57.287Z,1.73
2023-03-06T14:14:39.921Z,1.73
2023-03-06T14:17:21.660Z,1.71
2023-03-06T14:19:51.198Z,1.76
2023-03-06T14:22:24.502Z,1.65
2023-03-06T14:25:01.937Z,1.65
2023-03-06T14:27:54.989Z,1.64
2023-03-06T14:30:26.465Z,1.68
2023-03-06T14:32:56.352Z,1.71
2023-03-06T14:35:35.154Z,1.79
2023-03-06T14:38:07.338Z,1.78
2023-03-06T14:40:43.732Z,1.85
2023-03-06T14:43:27.571Z,1.60
2023-03-06T14:46:05.101Z,1.73
2023-03-06T14:48:40.766Z,1.49
2023-03-06T14:51:26.167Z,1.82
2023-03-06T14:54:01.923Z,1.54
2023-03-06T14:56:34.593Z,1.37
2023-03-06T14:59:12.622Z,1.64
2023-03-06T15:01:42.701Z,1.77
2023-03-06T15:04:26.127Z,1.89
2023-03-06T15:06:57.487Z,1.64
2023-03-06T15:09:36.927Z,1.73
2023-03-06T15:12:09.565Z,1.90
2023-03-06T15:14:57.213Z,1.86
2023-03-06T15:17:29.085Z,1.72
2023-03-06T15:20:00.489Z,1.99
2023-03-06T15:22:35.438Z,1.80
2023-03-06T15:25:19.406Z,1.86
2023-03-06T15:28:03.722Z,1.98
2023-03-06T15:30:37.720Z,1.75
2023-03-06T15:33:27.216Z,1.52
2023-03-06T15:36:03.167Z,1.37
2023-03-06T15:38:42.745Z,1.59
2023-03-06T15:41:57.250Z,1.70
2023-03-06T15:44:27.270Z,1.25
2023-03-06T15:47:07.793Z,1.55
2023-03-06T15:49:38.956Z,1.38
2023-03-06T15:52:09.310Z,1.50
2023-03-06T15:54:38.807Z,1.66
2023-03-06T15:57:14.435Z,1.57
2023-03-06T15:59:46.060Z,1.50
2023-03-06T16:02:20.837Z,1.59
2023-03-06T16:04:50.414Z,1.92
2023-03-06T16:07:19.721Z,1.79
2023-03-06T16:09:48.764Z,1.89
2023-03-06T16:12:23.571Z,1.76
2023-03-06T16:14:52.658Z,1.72
2023-03-06T16:17:21.537Z,1.86
2023-03-06T16:19:50.750Z,1.84
2023-03-06T16:22:19.695Z,1.92
2023-03-06T16:24:48.720Z,1.81
2023-03-06T16:27:26.454Z,1.90
2023-03-06T16:29:55.377Z,1.85
2023-03-06T16:32:28.604Z,2.13
2023-03-06T16:34:57.740Z,2.11
2023-03-06T16:37:26.683Z,2.35
2023-03-06T16:39:55.582Z,2.29
2023-03-06T16:42:24.532Z,2.38
2023-03-06T16:44:53.509Z,2.33
2023-03-06T16:47:22.352Z,2.64
2023-03-06T16:49:52.755Z,2.38
2023-03-06T16:52:22.058Z,2.86
2023-03-06T16:54:51.026Z,2.81
2023-03-06T16:57:23.314Z,2.84
2023-03-06T16:59:52.354Z,2.77
2023-03-06T17:02:21.242Z,2.85
2023-03-06T17:04:50.237Z,2.92
2023-03-06T17:07:19.295Z,3.04
2023-03-06T17:09:48.197Z,3.30
2023-03-06T17:12:17.161Z,3.40
2023-03-06T17:14:46.270Z,3.19
2023-03-06T17:17:15.141Z,3.20
2023-03-06T17:19:48.641Z,3.31
2023-03-06T17:22:19.075Z,3.57
2023-03-06T17:24:52.955Z,3.42
2023-03-06T17:27:23.858Z,3.43
2023-03-06T17:29:52.970Z,3.25
2023-03-06T17:32:21.923Z,3.26
2023-03-06T17:34:51.002Z,3.39
2023-03-06T17:37:20.170Z,3.51
2023-03-06T17:39:49.420Z,3.58
2023-03-06T17:42:18.278Z,3.31
2023-03-06T17:44:47.187Z,2.83
2023-03-06T17:47:16.189Z,3.52
2023-03-06T17:49:45.202Z,3.64
2023-03-06T17:52:14.720Z,3.87
2023-03-06T17:54:43.913Z,3.94
2023-03-06T17:57:12.846Z,3.93
2023-03-06T17:59:41.845Z,4.07
2023-03-06T18:02:12.334Z,4.11
2023-03-06T18:04:42.208Z,4.07
2023-03-06T18:07:11.113Z,4.02
2023-03-06T18:09:43.814Z,3.96
2023-03-06T18:12:12.876Z,4.05
2023-03-06T18:14:41.753Z,4.19
2023-03-06T18:17:10.755Z,3.97
2023-03-06T18:19:39.634Z,3.93
2023-03-06T18:22:08.571Z,4.17
2023-03-06T18:24:38.124Z,4.49
2023-03-06T18:27:07.373Z,4.66
2023-03-06T18:29:36.310Z,4.95
2023-03-06T18:32:05.469Z,5.09
2023-03-06T18:34:34.365Z,5.29
2023-03-06T18:37:03.501Z,5.42
2023-03-06T18:39:32.426Z,5.54
2023-03-06T18:42:01.386Z,5.42
2023-03-06T18:44:30.353Z,5.66
2023-03-06T18:46:59.220Z,5.92
2023-03-06T18:49:28.557Z,5.96
2023-03-06T18:51:57.552Z,6.08
2023-03-06T18:54:29.362Z,6.17
2023-03-06T18:56:58.565Z,6.29
2023-03-06T18:59:27.469Z,6.19
2023-03-06T19:01:58.517Z,6.53
2023-03-06T19:04:28.222Z,6.61
2023-03-06T19:06:57.581Z,6.46
2023-03-06T19:09:26.530Z,6.99
2023-03-06T19:11:55.776Z,7.27
2023-03-06T19:14:24.645Z,7.58
2023-03-06T19:16:53.733Z,7.47
2023-03-06T19:19:26.967Z,7.37
2023-03-06T19:21:58.672Z,7.17
2023-03-06T19:24:27.808Z,7.42
2023-03-06T19:26:56.675Z,7.74
2023-03-06T19:29:25.660Z,8.01
2023-03-06T19:31:57.754Z,8.21
2023-03-06T19:34:26.761Z,8.17
2023-03-06T19:36:55.667Z,8.37
2023-03-06T19:39:25.170Z,8.38
2023-03-06T19:41:54.193Z,8.72
2023-03-06T19:44:24.052Z,9.03
2023-03-06T19:46:53.011Z,8.64
2023-03-06T19:49:23.008Z,8.90
2023-03-06T19:51:51.905Z,9.07
2023-03-06T19:54:24.186Z,9.07
2023-03-06T19:56:53.397Z,9.53
2023-03-06T19:59:22.532Z,9.60
2023-03-06T20:01:51.538Z,9.20
2023-03-06T20:04:20.439Z,9.09
2023-03-06T20:06:51.871Z,9.67
2023-03-06T20:09:21.151Z,9.79
2023-03-06T20:11:50.079Z,9.47
2023-03-06T20:14:19.506Z,10.20
2023-03-06T20:16:48.381Z,9.70
2023-03-06T20:19:17.999Z,9.72
2023-03-06T20:21:48.174Z,10.72
2023-03-06T20:24:18.702Z,10.99
2023-03-06T20:26:49.831Z,10.58
2023-03-06T20:29:18.937Z,9.90
2023-03-06T20:31:50.743Z,10.46
2023-03-06T20:34:19.648Z,10.78
2023-03-06T20:36:48.703Z,10.82
2023-03-06T20:39:26.933Z,10.33
2023-03-06T20:41:59.897Z,11.00
2023-03-06T20:44:36.730Z,10.39
2023-03-06T20:47:05.327Z,10.62
2023-03-06T20:49:34.304Z,11.05
2023-03-06T20:52:06.164Z,11.18
2023-03-06T20:54:38.419Z,10.66
2023-03-06T20:57:17.971Z,11.28
2023-03-06T20:59:47.350Z,11.71
2023-03-06T21:02:36.682Z,11.98
2023-03-06T21:05:14.637Z,11.84
2023-03-06T21:07:43.628Z,11.93
2023-03-06T21:10:12.977Z,12.23
2023-03-06T21:12:42.072Z,12.29
2023-03-06T21:15:13.796Z,12.30
2023-03-06T21:17:42.877Z,11.94
2023-03-06T21:20:12.418Z,11.63
2023-03-06T21:22:41.531Z,11.98
2023-03-06T21:25:10.471Z,12.35
2023-03-06T21:27:40.490Z,12.47
2023-03-06T21:30:10.461Z,12.86
2023-03-06T21:32:40.555Z,12.89
2023-03-06T21:35:10.025Z,11.49
2023-03-06T21:37:42.139Z,11.09
2023-03-06T21:40:12.523Z,11.14
2023-03-06T21:42:42.629Z,10.54
2023-03-06T21:45:14.739Z,10.69
2023-03-06T21:47:43.649Z,10.16
2023-03-06T21:50:13.299Z,9.94
2023-03-06T21:52:42.270Z,10.12
2023-03-06T21:55:11.444Z,9.95
2023-03-06T21:57:40.438Z,9.71
2023-03-06T22:00:13.465Z,10.05
2023-03-06T22:02:42.469Z,9.77
2023-03-06T22:05:14.478Z,9.99
2023-03-06T22:07:43.953Z,10.94
2023-03-06T22:10:14.977Z,11.37
2023-03-06T22:12:46.562Z,11.51
2023-03-06T22:15:15.660Z,11.43
2023-03-06T22:17:48.583Z,11.04
2023-03-06T22:20:20.095Z,10.85
2023-03-06T22:22:49.152Z,10.94
2023-03-06T22:25:18.080Z,10.45
2023-03-06T22:27:47.584Z,10.61
2023-03-06T22:30:16.567Z,10.34
2023-03-06T22:32:45.550Z,10.37
2023-03-06T22:35:14.458Z,10.38
2023-03-06T22:37:45.022Z,10.26
2023-03-06T22:40:14.283Z,9.96
2023-03-06T22:42:43.353Z,9.90
2023-03-06T22:45:15.218Z,9.82
2023-03-06T22:47:44.413Z,9.87
2023-03-06T22:50:13.660Z,9.51
2023-03-06T22:52:42.691Z,9.56
2023-03-06T22:55:12.130Z,9.46
2023-03-06T22:57:45.024Z,9.28
2023-03-06T23:00:17.854Z,8.21
2023-03-06T23:02:48.370Z,7.89
2023-03-06T23:05:17.476Z,7.80
2023-03-06T23:07:48.789Z,7.85
2023-03-06T23:10:23.731Z,7.98
2023-03-06T23:13:10.975Z,8.17
2023-03-06T23:15:58.710Z,8.32
2023-03-06T23:18:46.754Z,8.62
2023-03-06T23:21:35.334Z,8.77
2023-03-06T23:24:24.742Z,8.90
2023-03-06T23:26:53.655Z,8.87
2023-03-06T23:29:22.516Z,8.88
2023-03-06T23:31:51.448Z,8.82
2023-03-06T23:34:20.355Z,8.82
2023-03-06T23:36:49.356Z,8.79
2023-03-06T23:39:18.555Z,8.77
2023-03-06T23:41:47.638Z,8.91
2023-03-06T23:44:16.525Z,9.02
2023-03-06T23:46:45.593Z,9.02
2023-03-06T23:49:14.545Z,8.92
2023-03-06T23:51:43.468Z,8.97
2023-03-06T23:54:12.456Z,8.78
2023-03-06T23:56:41.423Z,8.90
2023-03-06T23:59:12.372Z,8.93
